createdAt,value
2019-04-22T00:00:51.012Z,100154.79
2019-04-22T00:03:19.910Z,100152.08
2019-04-22T00:06:10.177Z,100153.55
2019-04-22T00:08:36.159Z,100152.33
2019-04-22T00:11:12.882Z,100149.75
2019-04-22T00:13:40.192Z,100147.38
2019-04-22T00:15:58.419Z,100146.98
2019-04-22T00:18:47.991Z,100139.77
2019-04-22T00:20:59.385Z,100135.84
2019-04-22T00:23:24.920Z,100137.59
2019-04-22T00:25:58.707Z,100133.36
2019-04-22T00:28:24.958Z,100129.48
2019-04-22T00:30:48.512Z,100127.96
2019-04-22T00:33:24.942Z,100127.44
2019-04-22T00:35:49.348Z,100126.55
2019-04-22T00:38:26.561Z,100119.95
2019-04-22T00:40:49.095Z,100118.72
2019-04-22T00:43:21.083Z,100118.09
2019-04-22T00:45:44.847Z,100114.87
2019-04-22T00:48:21.060Z,100115.97
2019-04-22T00:50:46.700Z,100117.09
2019-04-22T00:53:16.338Z,100111.26
2019-04-22T00:55:59.238Z,100112.88
2019-04-22T00:58:26.193Z,100113.80
2019-04-22T01:01:00.229Z,100107.64
2019-04-22T01:03:19.690Z,100109.39
2019-04-22T01:05:51.061Z,100109.52
2019-04-22T01:08:12.937Z,100104.02
2019-04-22T01:10:47.932Z,100102.66
2019-04-22T01:13:13.387Z,100101.27
2019-04-22T01:15:40.273Z,100098.58
2019-04-22T01:18:03.693Z,100100.69
2019-04-22T01:22:59.006Z,100103.48
2019-04-22T01:25:26.403Z,100103.73
2019-04-22T01:27:53.078Z,100096.37
2019-04-22T01:30:18.665Z,100098.48
2019-04-22T01:32:40.110Z,100099.23
2019-04-22T01:35:12.993Z,100094.89
2019-04-22T01:37:49.553Z,100093.81
2019-04-22T01:40:25.333Z,100091.95
2019-04-22T01:42:55.781Z,100094.55
2019-04-22T01:45:22.616Z,100104.23
2019-04-22T01:47:49.038Z,100119.64
2019-04-22T01:50:18.994Z,100120.12
2019-04-22T01:52:46.430Z,100131.61
2019-04-22T01:55:22.230Z,100111.80
2019-04-22T01:57:37.675Z,100125.54
2019-04-22T02:00:00.965Z,100107.81
2019-04-22T02:02:39.957Z,100112.84
2019-04-22T02:05:12.241Z,100108.17
2019-04-22T02:07:37.115Z,100107.34
2019-04-22T02:10:04.030Z,100096.23
2019-04-22T02:12:35.458Z,100096.84
2019-04-22T02:15:00.741Z,100097.58
2019-04-22T02:17:32.904Z,100090.21
2019-04-22T02:19:59.081Z,100094.92
2019-04-22T02:22:47.624Z,100088.05
2019-04-22T02:24:51.072Z,100081.39
2019-04-22T02:27:26.170Z,100078.05
2019-04-22T02:29:47.644Z,100076.01
2019-04-22T02:34:59.626Z,100072.61
2019-04-22T02:37:21.236Z,100076.24
2019-04-22T02:39:47.219Z,100073.93
2019-04-22T02:44:43.234Z,100066.63
2019-04-22T02:47:15.699Z,100065.80
2019-04-22T02:49:37.569Z,100063.00
2019-04-22T02:52:09.411Z,100062.34
2019-04-22T02:57:04.431Z,100053.08
2019-04-22T02:59:34.884Z,100056.30
2019-04-22T03:01:53.246Z,100055.74
2019-04-22T03:04:22.535Z,100058.45
2019-04-22T03:07:10.861Z,100059.55
2019-04-22T03:09:24.138Z,100057.10
2019-04-22T03:14:33.819Z,100047.21
2019-04-22T03:16:50.418Z,100045.84
2019-04-22T03:19:26.051Z,100045.07
2019-04-22T03:21:50.273Z,100046.34
2019-04-22T03:26:40.908Z,100047.13
2019-04-22T03:29:13.325Z,100048.89
2019-04-22T03:35:15.978Z,100047.05
2019-04-22T03:41:58.544Z,100049.36
2019-04-22T03:44:27.019Z,100047.54
2019-04-22T03:46:53.422Z,100047.66
2019-04-22T03:49:28.868Z,100047.33
2019-04-22T03:51:49.850Z,100049.08
2019-04-22T03:54:32.923Z,100049.03
2019-04-22T03:57:07.037Z,100053.59
2019-04-22T03:59:09.762Z,100049.26
2019-04-22T04:01:46.331Z,100049.41
2019-04-22T04:04:09.139Z,100045.89
2019-04-22T04:06:37.035Z,100047.16
2019-04-22T04:09:05.949Z,100044.31
2019-04-22T04:11:37.720Z,100040.83
2019-04-22T04:14:11.970Z,100043.42
2019-04-22T04:16:21.504Z,100043.38
2019-04-22T04:19:00.213Z,100041.18
2019-04-22T04:21:26.024Z,100036.67
2019-04-22T04:26:26.779Z,100040.94
2019-04-22T04:31:17.750Z,100046.83
2019-04-22T04:33:38.293Z,100046.44
2019-04-22T04:38:40.296Z,100050.49
2019-04-22T04:40:58.308Z,100054.00
2019-04-22T04:43:35.083Z,100053.52
2019-04-22T04:46:07.308Z,100058.12
2019-04-22T04:48:32.694Z,100057.47
2019-04-22T04:53:20.487Z,100052.25
2019-04-22T04:55:46.755Z,100052.97
2019-04-22T05:03:21.697Z,100050.23
2019-04-22T05:05:45.636Z,100051.23
2019-04-22T05:08:12.755Z,100044.85
2019-04-22T05:15:33.367Z,100046.73
2019-04-22T05:22:51.069Z,100049.88
2019-04-22T05:25:25.143Z,100045.91
2019-04-22T05:27:51.013Z,100044.30
2019-04-22T05:30:27.497Z,100040.39
2019-04-22T05:32:52.266Z,100041.87
2019-04-22T05:35:25.054Z,100026.91
2019-04-22T05:37:54.726Z,100033.30
2019-04-22T05:42:34.501Z,100029.06
2019-04-22T05:45:11.731Z,100025.83
2019-04-22T05:47:32.405Z,100026.53
2019-04-22T05:50:02.544Z,100013.63
2019-04-22T05:52:31.674Z,100011.61
2019-04-22T05:55:02.473Z,100018.67
2019-04-22T05:57:37.210Z,100014.83
2019-04-22T05:59:59.599Z,100008.98
2019-04-22T06:02:39.354Z,100006.14
2019-04-22T06:05:01.608Z,100007.42
2019-04-22T06:07:25.379Z,100004.41
2019-04-22T06:09:53.414Z,100012.97
2019-04-22T06:12:17.451Z,100006.29
2019-04-22T06:14:47.958Z,100001.44
2019-04-22T06:17:18.282Z,100007.18
2019-04-22T06:19:49.137Z,99998.78
2019-04-22T06:22:25.463Z,99993.53
2019-04-22T06:24:42.087Z,99995.48
2019-04-22T06:27:14.866Z,99993.63
2019-04-22T06:29:40.198Z,99991.31
2019-04-22T06:32:23.086Z,99983.65
2019-04-22T06:34:35.940Z,99984.63
2019-04-22T06:37:07.281Z,99986.88
2019-04-22T06:39:34.459Z,99983.42
2019-04-22T06:42:01.012Z,99985.66
2019-04-22T06:44:29.795Z,99986.30
2019-04-22T06:47:00.677Z,99981.86
2019-04-22T06:49:33.444Z,99974.42
2019-04-22T06:52:00.153Z,99972.67
2019-04-22T06:54:27.952Z,99964.92
2019-04-22T06:56:57.761Z,99965.15
2019-04-22T06:59:18.373Z,99967.20
2019-04-22T07:01:50.354Z,99965.38
2019-04-22T07:04:14.480Z,99962.39
2019-04-22T07:06:52.385Z,99962.67
2019-04-22T07:11:36.723Z,99957.19
2019-04-22T07:14:06.897Z,99954.52
2019-04-22T07:16:38.084Z,99959.47
2019-04-22T07:19:09.251Z,99953.95
2019-04-22T07:21:30.482Z,99955.37
2019-04-22T07:24:22.802Z,99960.98
2019-04-22T07:26:24.981Z,99961.33
2019-04-22T07:28:56.421Z,99964.34
2019-04-22T07:31:30.563Z,99962.44
2019-04-22T07:33:56.295Z,99964.25
2019-04-22T07:38:43.927Z,99960.59
2019-04-22T07:41:23.069Z,99962.79
2019-04-22T07:44:07.394Z,99963.26
2019-04-22T07:46:13.427Z,99958.17
2019-04-22T07:48:44.874Z,99963.04
2019-04-22T07:51:16.306Z,99961.70
2019-04-22T07:53:41.516Z,99962.87
2019-04-22T07:56:16.145Z,99963.56
2019-04-22T07:58:36.001Z,99963.13
2019-04-22T08:01:09.069Z,99958.08
2019-04-22T08:03:37.861Z,99961.28
2019-04-22T08:06:16.811Z,99958.67
2019-04-22T08:08:29.161Z,99952.05
2019-04-22T08:11:30.170Z,99956.46
2019-04-22T08:13:32.633Z,99946.33
2019-04-22T08:15:58.767Z,99947.83
2019-04-22T08:20:55.372Z,99950.63
2019-04-22T08:23:23.750Z,99942.53
2019-04-22T08:25:49.549Z,99948.05
2019-04-22T08:28:17.549Z,99941.20
2019-04-22T08:30:47.614Z,99953.83
2019-04-22T08:33:15.974Z,99943.36
2019-04-22T08:38:14.911Z,99946.63
2019-04-22T08:40:43.207Z,99948.55
2019-04-22T08:43:12.632Z,99954.28
2019-04-22T08:45:38.500Z,99950.30
2019-04-22T08:48:01.742Z,99938.60
2019-04-22T08:50:38.901Z,99942.86
2019-04-22T08:53:11.087Z,99931.27
2019-04-22T08:55:40.453Z,99937.55
2019-04-22T09:00:37.359Z,99938.53
2019-04-22T09:03:15.974Z,99936.88
2019-04-22T09:08:01.450Z,99926.02
2019-04-22T09:10:36.194Z,99926.56
2019-04-22T09:15:28.185Z,99924.75
2019-04-22T09:17:55.926Z,99933.67
2019-04-22T09:20:20.709Z,99923.69
2019-04-22T09:22:48.722Z,99916.00
2019-04-22T09:25:06.602Z,99915.91
2019-04-22T09:27:42.912Z,99907.30
2019-04-22T09:30:17.002Z,99909.51
2019-04-22T09:35:09.485Z,99909.97
2019-04-22T09:37:39.270Z,99915.92
2019-04-22T09:40:04.513Z,99904.76
2019-04-22T09:42:31.856Z,99904.21
2019-04-22T09:45:04.687Z,99902.20
2019-04-22T09:50:01.951Z,99906.01
2019-04-22T09:52:22.494Z,99900.42
2019-04-22T09:55:01.661Z,99893.77
2019-04-22T09:57:21.488Z,99901.60
2019-04-22T09:59:51.000Z,99902.65
2019-04-22T10:02:26.284Z,99893.72
2019-04-22T10:04:48.260Z,99892.97
2019-04-22T10:07:16.457Z,99894.70
2019-04-22T10:12:10.267Z,99895.91
2019-04-22T10:14:39.575Z,99901.66
2019-04-22T10:16:59.871Z,99890.38
2019-04-22T10:19:29.985Z,99897.63
2019-04-22T10:21:57.352Z,99897.84
2019-04-22T10:24:29.684Z,99901.30
2019-04-22T10:26:56.800Z,99895.02
2019-04-22T10:29:24.424Z,99889.95
2019-04-22T10:31:55.808Z,99895.69
2019-04-22T10:34:11.762Z,99891.56
2019-04-22T10:36:27.784Z,99896.73
2019-04-22T10:38:54.671Z,99891.57
2019-04-22T10:41:20.966Z,99889.52
2019-04-22T10:43:47.602Z,99891.98
2019-04-22T10:46:13.989Z,99883.44
2019-04-22T10:48:41.988Z,99880.72
2019-04-22T10:51:08.594Z,99877.80
2019-04-22T10:53:35.590Z,99877.30
2019-04-22T10:56:03.242Z,99880.92
2019-04-22T10:58:30.710Z,99872.92
2019-04-22T11:00:58.209Z,99867.10
2019-04-22T11:03:24.738Z,99866.45
2019-04-22T11:05:53.809Z,99865.83
2019-04-22T11:08:27.280Z,99862.16
2019-04-22T11:11:03.620Z,99860.55
2019-04-22T11:13:16.107Z,99853.29
2019-04-22T11:15:42.497Z,99857.81
2019-04-22T11:18:09.564Z,99856.22
2019-04-22T11:20:35.902Z,99843.15
2019-04-22T11:23:02.684Z,99841.55
2019-04-22T11:25:29.930Z,99847.77
2019-04-22T11:27:57.763Z,99843.22
2019-04-22T11:30:27.937Z,99840.19
2019-04-22T11:32:54.093Z,99845.06
2019-04-22T11:35:21.889Z,99835.73
2019-04-22T11:37:48.671Z,99830.64
2019-04-22T11:40:23.326Z,99840.12
2019-04-22T11:42:43.944Z,99844.66
2019-04-22T11:45:11.057Z,99842.24
2019-04-22T11:47:37.487Z,99824.69
2019-04-22T11:50:07.968Z,99843.24
2019-04-22T11:52:35.077Z,99839.55
2019-04-22T11:55:01.864Z,99833.80
2019-04-22T11:57:28.811Z,99831.38
2019-04-22T11:59:56.585Z,99826.78
2019-04-22T12:02:25.417Z,99816.27
2019-04-22T12:04:53.944Z,99837.56
2019-04-22T12:07:21.305Z,99830.58
2019-04-22T12:09:47.912Z,99825.30
2019-04-22T12:12:15.831Z,99831.80
2019-04-22T12:14:42.508Z,99830.59
2019-04-22T12:17:08.772Z,99830.95
2019-04-22T12:19:35.211Z,99830.49
2019-04-22T12:22:02.825Z,99829.38
2019-04-22T12:24:30.246Z,99825.53
2019-04-22T12:26:58.045Z,99820.59
2019-04-22T12:29:24.814Z,99815.23
2019-04-22T12:31:51.479Z,99814.39
2019-04-22T12:34:17.620Z,99826.17
2019-04-22T12:36:44.812Z,99816.27
2019-04-22T12:39:11.553Z,99825.73
2019-04-22T12:41:38.330Z,99827.41
2019-04-22T12:44:05.275Z,99813.70
2019-04-22T12:46:32.341Z,99802.81
2019-04-22T12:49:00.186Z,99803.52
2019-04-22T12:51:27.232Z,99795.72
2019-04-22T12:53:55.031Z,99810.66
2019-04-22T12:56:21.758Z,99805.31
2019-04-22T12:58:49.644Z,99793.41
2019-04-22T13:01:16.969Z,99801.84
2019-04-22T13:03:44.600Z,99796.13
2019-04-22T13:06:12.001Z,99794.11
2019-04-22T13:08:38.584Z,99791.09
2019-04-22T13:11:11.995Z,99785.52
2019-04-22T13:13:34.572Z,99774.09
2019-04-22T13:16:00.862Z,99778.04
2019-04-22T13:18:37.129Z,99771.55
2019-04-22T13:20:56.650Z,99776.87
2019-04-22T13:23:23.517Z,99782.38
2019-04-22T13:25:49.666Z,99772.73
2019-04-22T13:28:15.837Z,99772.80
2019-04-22T13:30:41.973Z,99773.34
2019-04-22T13:33:08.421Z,99768.19
2019-04-22T13:35:36.108Z,99774.63
2019-04-22T13:38:02.448Z,99772.70
2019-04-22T13:40:28.931Z,99779.11
2019-04-22T13:42:55.661Z,99771.84
2019-04-22T13:45:22.375Z,99763.56
2019-04-22T13:48:08.792Z,99760.59
2019-04-22T13:50:49.429Z,99756.31
2019-04-22T13:53:34.334Z,99753.46
2019-04-22T13:55:45.486Z,99754.09
2019-04-22T13:57:58.258Z,99759.22
2019-04-22T14:00:26.726Z,99749.73
2019-04-22T14:03:12.872Z,99751.45
2019-04-22T14:05:42.527Z,99754.81
2019-04-22T14:08:10.711Z,99761.61
2019-04-22T14:10:38.475Z,99743.92
2019-04-22T14:13:05.720Z,99753.30
2019-04-22T14:15:33.875Z,99741.40
2019-04-22T14:18:00.977Z,99748.27
2019-04-22T14:20:29.496Z,99753.36
2019-04-22T14:22:56.675Z,99745.87
2019-04-22T14:25:23.028Z,99748.80
2019-04-22T14:27:57.742Z,99736.31
2019-04-22T14:30:18.861Z,99741.23
2019-04-22T14:32:45.777Z,99755.92
2019-04-22T14:35:13.502Z,99747.69
2019-04-22T14:37:40.280Z,99727.27
2019-04-22T14:40:09.485Z,99732.92
2019-04-22T14:42:56.036Z,99728.79
2019-04-22T14:45:41.778Z,99725.80
2019-04-22T14:48:00.881Z,99723.97
2019-04-22T14:50:32.858Z,99730.03
2019-04-22T14:52:58.959Z,99731.27
2019-04-22T14:55:13.787Z,99722.45
2019-04-22T14:57:35.888Z,99719.86
2019-04-22T15:00:09.470Z,99717.17
2019-04-22T15:02:35.752Z,99712.17
2019-04-22T15:05:03.818Z,99716.39
2019-04-22T15:07:30.802Z,99720.35
2019-04-22T15:09:57.751Z,99715.90
2019-04-22T15:12:31.009Z,99703.25
2019-04-22T15:14:53.413Z,99711.66
2019-04-22T15:17:31.329Z,99704.55
2019-04-22T15:20:19.533Z,99700.60
2019-04-22T15:22:46.479Z,99709.68
2019-04-22T15:25:12.874Z,99700.55
2019-04-22T15:27:39.419Z,99705.02
2019-04-22T15:30:07.585Z,99686.31
2019-04-22T15:32:33.824Z,99686.69
2019-04-22T15:35:01.739Z,99704.39
2019-04-22T15:37:28.281Z,99699.42
2019-04-22T15:39:56.654Z,99702.79
2019-04-22T15:42:28.118Z,99696.80
2019-04-22T15:44:51.677Z,99699.38
2019-04-22T15:47:18.828Z,99699.22
2019-04-22T15:49:45.896Z,99706.09
2019-04-22T15:52:12.509Z,99704.11
2019-04-22T15:54:39.441Z,99694.84
2019-04-22T15:57:06.706Z,99695.59
2019-04-22T15:59:52.184Z,99704.02
2019-04-22T16:02:02.696Z,99699.73
2019-04-22T16:04:30.736Z,99697.14
2019-04-22T16:06:57.158Z,99700.45
2019-04-22T16:09:24.891Z,99702.02
2019-04-22T16:11:51.876Z,99689.72
2019-04-22T16:14:25.516Z,99689.63
2019-04-22T16:16:46.432Z,99692.48
2019-04-22T16:19:14.071Z,99685.81
2019-04-22T16:21:51.282Z,99686.67
2019-04-22T16:24:11.119Z,99689.02
2019-04-22T16:26:40.196Z,99686.55
2019-04-22T16:29:09.422Z,99673.89
2019-04-22T16:31:35.773Z,99675.60
2019-04-22T16:34:02.661Z,99672.45
2019-04-22T16:36:29.223Z,99668.97
2019-04-22T16:38:56.997Z,99666.30
2019-04-22T16:41:24.510Z,99665.19
2019-04-22T16:43:50.870Z,99664.19
2019-04-22T16:46:17.250Z,99664.50
2019-04-22T16:48:43.494Z,99660.50
2019-04-22T16:51:09.945Z,99665.46
2019-04-22T16:53:37.060Z,99662.92
2019-04-22T16:56:04.800Z,99666.12
2019-04-22T16:58:31.020Z,99664.96
2019-04-22T17:00:58.607Z,99656.78
2019-04-22T17:03:28.798Z,99658.27
2019-04-22T17:06:07.734Z,99664.09
2019-04-22T17:08:34.859Z,99659.94
2019-04-22T17:11:01.957Z,99657.48
2019-04-22T17:13:30.942Z,99657.00
2019-04-22T17:15:59.042Z,99652.83
2019-04-22T17:18:25.435Z,99661.15
2019-04-22T17:20:52.943Z,99661.64
2019-04-22T17:23:19.995Z,99663.09
2019-04-22T17:25:46.383Z,99664.75
2019-04-22T17:28:13.243Z,99660.80
2019-04-22T17:30:39.808Z,99660.34
2019-04-22T17:33:06.145Z,99659.39
2019-04-22T17:35:34.051Z,99658.11
2019-04-22T17:38:10.157Z,99665.13
2019-04-22T17:40:45.704Z,99682.16
2019-04-22T17:43:32.671Z,99673.91
2019-04-22T17:45:59.732Z,99671.60
2019-04-22T17:48:40.496Z,99678.84
2019-04-22T17:51:16.586Z,99684.55
2019-04-22T17:56:08.656Z,99688.89
2019-04-22T17:58:44.997Z,99683.10
2019-04-22T18:01:09.340Z,99687.97
2019-04-22T18:03:22.664Z,99691.02
2019-04-22T18:05:48.018Z,99682.05
2019-04-22T18:08:31.558Z,99691.23
2019-04-22T18:10:59.934Z,99680.59
2019-04-22T18:13:33.525Z,99682.95
2019-04-22T18:16:00.533Z,99684.78
2019-04-22T18:18:23.410Z,99683.16
2019-04-22T18:20:45.841Z,99686.30
2019-04-22T18:23:09.114Z,99682.17
2019-04-22T18:25:44.990Z,99687.02
2019-04-22T18:28:22.211Z,99687.56
2019-04-22T18:30:34.653Z,99691.56
2019-04-22T18:33:12.977Z,99690.27
2019-04-22T18:35:35.226Z,99687.45
2019-04-22T18:38:07.700Z,99692.13
2019-04-22T18:40:37.283Z,99693.45
2019-04-22T18:43:03.699Z,99694.80
2019-04-22T18:45:54.901Z,99691.66
2019-04-22T18:47:55.478Z,99694.34
2019-04-22T18:50:53.367Z,99695.87
2019-04-22T18:53:25.193Z,99690.41
2019-04-22T18:56:03.910Z,99692.11
2019-04-22T18:58:27.525Z,99685.64
2019-04-22T19:00:44.034Z,99692.16
2019-04-22T19:03:22.687Z,99693.00
2019-04-22T19:06:26.856Z,99697.35
2019-04-22T19:08:43.341Z,99691.88
2019-04-22T19:11:12.666Z,99705.22
2019-04-22T19:18:39.189Z,99701.09
2019-04-22T19:21:07.884Z,99698.59
2019-04-22T19:23:35.384Z,99700.78
2019-04-22T19:25:59.721Z,99699.77
2019-04-22T19:31:02.701Z,99699.47
2019-04-22T19:33:29.036Z,99698.80
2019-04-22T19:35:49.173Z,99697.48
2019-04-22T19:38:14.370Z,99697.97
2019-04-22T19:41:02.491Z,99696.16
2019-04-22T19:43:22.915Z,99694.50
2019-04-22T19:45:39.842Z,99691.86
2019-04-22T19:48:25.399Z,99689.36
2019-04-22T19:50:52.713Z,99687.39
2019-04-22T19:53:20.597Z,99686.38
2019-04-22T19:55:45.089Z,99684.72
2019-04-22T19:58:07.275Z,99684.05
2019-04-22T20:00:36.467Z,99684.71
2019-04-22T20:03:21.711Z,99685.73
2019-04-22T20:05:59.487Z,99687.22
2019-04-22T20:08:32.237Z,99683.42
2019-04-22T20:11:01.718Z,99681.92
2019-04-22T20:13:33.867Z,99674.28
2019-04-22T20:15:47.400Z,99674.30
2019-04-22T20:20:58.493Z,99676.13
2019-04-22T20:23:14.418Z,99667.68
2019-04-22T20:25:45.992Z,99670.35
2019-04-22T20:28:19.481Z,99667.19
2019-04-22T20:30:45.830Z,99664.38
2019-04-22T20:33:10.733Z,99664.04
2019-04-22T20:35:44.835Z,99665.36
2019-04-22T20:38:09.275Z,99664.03
2019-04-22T20:40:40.086Z,99660.72
2019-04-22T20:43:13.717Z,99657.73
2019-04-22T20:45:35.162Z,99660.41
2019-04-22T20:47:53.888Z,99657.23
2019-04-22T20:50:35.411Z,99657.55
2019-04-22T20:53:08.627Z,99654.07
2019-04-22T20:55:25.437Z,99652.26
2019-04-22T20:57:59.082Z,99657.73
2019-04-22T21:00:23.450Z,99651.77
2019-04-22T21:02:46.617Z,99653.08
2019-04-22T21:05:19.622Z,99648.41
2019-04-22T21:08:01.456Z,99645.09
2019-04-22T21:10:15.858Z,99639.12
2019-04-22T21:12:39.747Z,99639.95
2019-04-22T21:15:25.530Z,99634.14
2019-04-22T21:17:48.865Z,99635.45
2019-04-22T21:20:17.327Z,99631.50
2019-04-22T21:22:43.672Z,99633.80
2019-04-22T21:25:07.538Z,99633.95
2019-04-22T21:27:40.652Z,99635.46
2019-04-22T21:29:58.666Z,99636.45
2019-04-22T21:32:34.363Z,99631.63
2019-04-22T21:35:06.514Z,99632.46
2019-04-22T21:37:37.759Z,99628.48
2019-04-22T21:39:54.569Z,99625.98
2019-04-22T21:42:26.572Z,99619.84
2019-04-22T21:44:54.127Z,99618.03
2019-04-22T21:47:28.720Z,99623.00
2019-04-22T21:50:04.654Z,99618.51
2019-04-22T21:52:24.836Z,99621.80
2019-04-22T21:54:57.397Z,99616.16
2019-04-22T21:57:30.794Z,99614.84
2019-04-22T21:59:56.416Z,99612.17
2019-04-22T22:02:28.410Z,99606.03
2019-04-22T22:04:47.278Z,99604.32
2019-04-22T22:07:07.487Z,99601.98
2019-04-22T22:09:47.510Z,99599.98
2019-04-22T22:12:10.411Z,99591.54
2019-04-22T22:14:46.021Z,99594.02
2019-04-22T22:17:07.337Z,99591.20
2019-04-22T22:19:42.350Z,99587.05
2019-04-22T22:22:25.410Z,99584.54
2019-04-22T22:24:41.615Z,99584.70
2019-04-22T22:27:06.235Z,99579.88
2019-04-22T22:29:43.609Z,99576.22
2019-04-22T22:32:06.511Z,99578.38
2019-04-22T22:34:29.618Z,99581.34
2019-04-22T22:36:50.787Z,99578.52
2019-04-22T22:39:23.203Z,99570.19
2019-04-22T22:41:37.549Z,99568.53
2019-04-22T22:44:14.117Z,99566.00
2019-04-22T22:46:43.727Z,99564.33
2019-04-22T22:49:22.961Z,99569.76
2019-04-22T22:52:09.951Z,99569.41
2019-04-22T22:54:18.442Z,99564.59
2019-04-22T22:56:55.548Z,99566.41
2019-04-22T22:59:18.095Z,99564.38
2019-04-22T23:01:39.600Z,99561.36
2019-04-22T23:04:18.009Z,99552.25
2019-04-22T23:06:39.081Z,99554.89
2019-04-22T23:09:10.198Z,99552.89
2019-04-22T23:11:52.065Z,99553.48
2019-04-22T23:14:02.409Z,99551.16
2019-04-22T23:16:18.334Z,99543.52
2019-04-22T23:18:57.601Z,99542.83
2019-04-22T23:21:31.317Z,99538.53
2019-04-22T23:24:14.531Z,99534.19
2019-04-22T23:26:48.506Z,99531.70
2019-04-22T23:29:25.437Z,99536.95
2019-04-22T23:31:48.692Z,99534.11
2019-04-22T23:34:22.720Z,99534.73
2019-04-22T23:36:52.549Z,99530.92
2019-04-22T23:39:30.696Z,99530.59
2019-04-22T23:41:58.527Z,99520.33
2019-04-22T23:46:48.885Z,99517.34
2019-04-22T23:49:18.121Z,99519.80
2019-04-22T23:51:55.674Z,99520.48
2019-04-22T23:54:20.441Z,99517.48
2019-04-22T23:56:43.515Z,99512.17
2019-04-22T23:59:22.951Z,99512.66
